Time;durP1;ratioP1;P1;durP2;ratioP2;P2;SDS_P1;SDS_P2;PMS_P1;PMS_P2;Temp;Humidity;BMP_temperature;BMP_pressure;BME280_temperature;BME280_humidity;BME280_pressure;Samples;Min_cycle;Max_cycle;Signal;HPM_P1;HPM_P2
2023/07/29 00:01:59;;;;;;;12.18;7.28;;;18.90;99.90;;;;;;5078844;28;20118;-58
2023/07/29 00:04:25;;;;;;;16.83;8.63;;;18.90;99.90;;;;;;5079530;28;20059;-58
2023/07/29 00:06:50;;;;;;;11.73;7.35;;;18.90;99.90;;;;;;5080238;28;20036;-58
2023/07/29 00:09:16;;;;;;;12.02;7.00;;;18.90;99.90;;;;;;5078417;28;20067;-57
2023/07/29 00:11:42;;;;;;;10.68;6.88;;;18.90;99.90;;;;;;5081262;28;20040;-58
2023/07/29 00:14:07;;;;;;;11.20;6.82;;;18.90;99.90;;;;;;5098036;28;20066;-57
2023/07/29 00:16:33;;;;;;;10.63;7.20;;;18.90;99.90;;;;;;5099772;28;20036;-58
2023/07/29 00:18:59;;;;;;;10.30;6.95;;;18.90;99.90;;;;;;5097607;28;20051;-57
2023/07/29 00:21:24;;;;;;;9.63;6.88;;;18.80;99.90;;;;;;5099274;28;20047;-58
2023/07/29 00:23:50;;;;;;;10.90;7.03;;;18.80;99.90;;;;;;5099277;28;20118;-58
2023/07/29 00:26:16;;;;;;;12.73;7.60;;;18.90;99.90;;;;;;5098205;28;20403;-58
2023/07/29 00:28:41;;;;;;;10.15;6.68;;;18.90;99.90;;;;;;5081751;28;20048;-58
2023/07/29 00:31:07;;;;;;;12.57;8.43;;;18.80;99.90;;;;;;5097528;28;20048;-58
2023/07/29 00:33:33;;;;;;;11.10;7.60;;;18.70;99.90;;;;;;5099490;28;20075;-57
2023/07/29 00:36:01;;;;;;;11.13;7.70;;;18.60;99.90;;;;;;5097689;28;20603;-58
2023/07/29 00:38:27;;;;;;;11.25;8.15;;;18.60;99.90;;;;;;5081198;28;20044;-58
2023/07/29 00:40:53;;;;;;;11.88;8.25;;;18.70;99.90;;;;;;5080682;28;20036;-57
2023/07/29 00:43:18;;;;;;;13.27;8.98;;;18.60;99.90;;;;;;5098329;28;20068;-58
2023/07/29 00:45:44;;;;;;;13.45;9.15;;;18.60;99.90;;;;;;5099890;28;20036;-57
2023/07/29 00:48:11;;;;;;;12.07;8.52;;;18.70;99.90;;;;;;5097060;28;20036;-58
2023/07/29 00:50:37;;;;;;;15.77;9.07;;;18.70;99.90;;;;;;5099507;28;20044;-58
2023/07/29 00:53:03;;;;;;;15.43;8.60;;;18.70;99.90;;;;;;5097396;28;20060;-58
2023/07/29 00:55:28;;;;;;;11.20;8.15;;;18.70;99.90;;;;;;5099183;28;20723;-58
2023/07/29 00:57:54;;;;;;;12.55;8.75;;;18.70;99.90;;;;;;5081339;28;20044;-57
2023/07/29 01:00:21;;;;;;;15.63;8.75;;;18.70;99.90;;;;;;5077966;28;20671;-58
2023/07/29 01:02:47;;;;;;;14.18;9.15;;;18.70;99.90;;;;;;5078936;28;20040;-58
2023/07/29 01:05:14;;;;;;;13.75;8.80;;;18.70;99.90;;;;;;5077102;28;20052;-58
2023/07/29 01:07:50;;;;;;;13.60;9.15;;;18.80;99.90;;;;;;5078969;28;20068;-59
2023/07/29 01:10:37;;;;;;;12.05;8.50;;;18.80;99.90;;;;;;5077129;28;20047;-58
2023/07/29 01:13:08;;;;;;;11.80;8.50;;;18.80;99.90;;;;;;5077671;28;20049;-57
2023/07/29 01:15:58;;;;;;;13.82;9.25;;;18.70;99.90;;;;;;5079135;28;20049;-58
2023/07/29 01:18:31;;;;;;;13.05;9.30;;;18.70;99.90;;;;;;5076464;28;20059;-57
2023/07/29 01:21:07;;;;;;;13.48;9.43;;;18.70;99.90;;;;;;5078447;28;20078;-58
2023/07/29 01:23:35;;;;;;;13.27;8.75;;;18.60;99.90;;;;;;5077265;28;20032;-58
2023/07/29 01:26:02;;;;;;;15.48;9.20;;;18.70;99.90;;;;;;5077451;28;20071;-58
2023/07/29 01:28:28;;;;;;;13.15;8.70;;;18.70;99.90;;;;;;5078778;28;20484;-58
2023/07/29 01:31:16;;;;;;;12.82;9.60;;;18.60;99.90;;;;;;5076606;28;20557;-58
2023/07/29 01:34:10;;;;;;;14.07;8.27;;;18.60;99.90;;;;;;5078447;28;20048;-58
2023/07/29 01:36:40;;;;;;;12.95;9.38;;;18.50;99.90;;;;;;5077937;28;20056;-57
2023/07/29 01:39:06;;;;;;;13.18;9.60;;;18.50;99.90;;;;;;5077180;28;20063;-57
2023/07/29 01:41:33;;;;;;;12.35;9.55;;;18.40;99.90;;;;;;5078792;28;20110;-58
2023/07/29 01:44:00;;;;;;;16.63;10.13;;;18.40;99.90;;;;;;5076657;28;20431;-58
2023/07/29 01:46:26;;;;;;;13.50;8.57;;;18.50;99.90;;;;;;5078419;28;20052;-58
2023/07/29 01:48:51;;;;;;;16.17;9.73;;;18.50;99.90;;;;;;5057814;28;20397;-58
2023/07/29 01:51:17;;;;;;;12.30;9.38;;;18.40;99.90;;;;;;5078047;28;20137;-58
2023/07/29 01:53:43;;;;;;;14.18;9.40;;;18.40;99.90;;;;;;5077497;28;20090;-57
2023/07/29 01:56:09;;;;;;;13.43;9.00;;;18.40;99.90;;;;;;5078079;28;20032;-58
2023/07/29 01:58:34;;;;;;;13.35;9.38;;;18.40;99.90;;;;;;5098075;28;20032;-58
2023/07/29 02:01:00;;;;;;;13.65;9.27;;;18.40;99.90;;;;;;5096917;28;20040;-58
2023/07/29 02:03:26;;;;;;;12.65;9.23;;;18.30;99.90;;;;;;5098368;28;20514;-58
2023/07/29 02:05:51;;;;;;;12.68;9.57;;;18.20;99.90;;;;;;5096852;28;20126;-57
2023/07/29 02:08:17;;;;;;;12.30;9.25;;;18.30;99.90;;;;;;5098121;28;20051;-58
2023/07/29 02:10:45;;;;;;;13.85;9.27;;;18.20;99.90;;;;;;5100127;28;20392;-57
2023/07/29 02:13:10;;;;;;;13.82;9.82;;;18.20;99.90;;;;;;5101142;28;20044;-58
2023/07/29 02:15:36;;;;;;;14.13;9.55;;;18.20;99.90;;;;;;5102664;28;20111;-55
2023/07/29 02:18:03;;;;;;;12.45;9.07;;;18.10;99.90;;;;;;5100025;28;20603;-58
2023/07/29 02:20:29;;;;;;;14.35;10.07;;;18.20;99.90;;;;;;5102148;28;20046;-57
2023/07/29 02:22:54;;;;;;;13.45;9.88;;;18.10;99.90;;;;;;5100242;28;20099;-58
2023/07/29 02:25:20;;;;;;;13.60;9.38;;;18.10;99.90;;;;;;5102202;28;20594;-59
2023/07/29 02:27:46;;;;;;;12.40;8.73;;;18.10;99.90;;;;;;5101169;28;20066;-59
2023/07/29 02:30:12;;;;;;;14.07;9.75;;;18.10;99.90;;;;;;5101105;28;20398;-58
2023/07/29 02:32:38;;;;;;;13.73;9.40;;;18.00;99.90;;;;;;5102335;28;20051;-57
2023/07/29 02:35:04;;;;;;;13.38;9.25;;;18.00;99.90;;;;;;5100231;28;20044;-58
2023/07/29 02:37:30;;;;;;;13.35;9.50;;;18.00;99.90;;;;;;5102289;28;20638;-58
2023/07/29 02:39:56;;;;;;;14.30;9.15;;;17.90;99.90;;;;;;5100200;28;20063;-57
2023/07/29 02:42:21;;;;;;;14.57;10.25;;;17.90;99.90;;;;;;5101883;28;20442;-58
2023/07/29 02:44:47;;;;;;;13.60;9.02;;;17.90;99.90;;;;;;5100387;28;20040;-58
2023/07/29 02:47:13;;;;;;;13.30;9.45;;;17.90;99.90;;;;;;5100821;28;20040;-58
2023/07/29 02:49:38;;;;;;;11.77;8.20;;;17.80;99.90;;;;;;5101102;28;20090;-58
2023/07/29 02:52:04;;;;;;;14.30;9.57;;;17.80;99.90;;;;;;5099968;28;20043;-58
2023/07/29 02:54:30;;;;;;;12.05;9.10;;;17.80;99.90;;;;;;5083468;28;20090;-58
2023/07/29 02:56:56;;;;;;;17.30;9.02;;;17.70;99.90;;;;;;5091326;28;20103;-58
2023/07/29 02:59:21;;;;;;;14.35;9.00;;;17.80;99.90;;;;;;5080953;28;20082;-58
2023/07/29 03:01:47;;;;;;;12.98;9.05;;;17.80;99.90;;;;;;5079470;28;20322;-57
2023/07/29 03:04:13;;;;;;;12.88;9.00;;;17.70;99.90;;;;;;5062607;28;20036;-58
2023/07/29 03:06:38;;;;;;;13.30;8.63;;;17.80;99.90;;;;;;5080535;28;20044;-57
2023/07/29 03:09:04;;;;;;;14.05;8.52;;;17.70;99.90;;;;;;5079473;28;20102;-57
2023/07/29 03:11:30;;;;;;;12.18;8.32;;;17.70;99.90;;;;;;5081487;28;20573;-57
2023/07/29 03:13:56;;;;;;;16.23;10.52;;;17.60;99.90;;;;;;5078873;28;20048;-58
2023/07/29 03:16:22;;;;;;;12.90;8.45;;;17.60;99.90;;;;;;5081085;28;20474;-58
2023/07/29 03:18:48;;;;;;;13.10;8.15;;;17.60;99.90;;;;;;5078584;28;20468;-58
2023/07/29 03:21:14;;;;;;;13.32;8.23;;;17.60;99.90;;;;;;5080083;28;20036;-58
2023/07/29 03:23:40;;;;;;;12.68;8.25;;;17.50;99.90;;;;;;5080214;28;20050;-58
2023/07/29 03:26:10;;;;;;;11.52;8.35;;;17.60;99.90;;;;;;5078963;28;20392;-58
2023/07/29 03:28:39;;;;;;;13.60;8.40;;;17.60;99.90;;;;;;5080995;28;20056;-58
2023/07/29 03:31:05;;;;;;;12.18;7.82;;;17.50;99.90;;;;;;5078892;28;20048;-58
2023/07/29 03:33:30;;;;;;;15.02;8.57;;;17.50;99.90;;;;;;5080765;28;20468;-57
2023/07/29 03:35:56;;;;;;;14.07;8.80;;;17.50;99.90;;;;;;5079015;28;20041;-59
2023/07/29 03:38:22;;;;;;;11.93;7.85;;;17.40;99.90;;;;;;5080524;28;20051;-58
2023/07/29 03:40:48;;;;;;;12.80;8.88;;;17.40;99.90;;;;;;5080209;28;20036;-58
2023/07/29 03:43:13;;;;;;;13.80;7.70;;;17.30;99.90;;;;;;5079166;28;20174;-58
2023/07/29 03:45:40;;;;;;;12.77;8.30;;;17.40;99.90;;;;;;5092926;28;20051;-59
2023/07/29 03:48:06;;;;;;;11.07;7.55;;;17.30;99.90;;;;;;5080479;28;20040;-59
2023/07/29 03:50:35;;;;;;;14.20;7.50;;;17.30;99.90;;;;;;5082343;28;20040;-58
2023/07/29 03:53:01;;;;;;;10.43;7.28;;;17.40;99.90;;;;;;5098707;28;20032;-61
2023/07/29 03:55:27;;;;;;;15.15;7.95;;;17.40;99.90;;;;;;5100591;28;20128;-59
2023/07/29 03:57:52;;;;;;;12.10;7.63;;;17.30;99.90;;;;;;5065759;28;20079;-58
2023/07/29 04:00:18;;;;;;;11.40;7.25;;;17.30;99.90;;;;;;5079000;28;20127;-58
2023/07/29 04:02:45;;;;;;;11.82;7.28;;;17.30;99.90;;;;;;5062483;28;20044;-57
2023/07/29 04:05:11;;;;;;;10.50;6.85;;;17.30;99.90;;;;;;5078220;28;20052;-58
2023/07/29 04:07:37;;;;;;;13.38;7.03;;;17.40;99.90;;;;;;5080214;28;20365;-59
2023/07/29 04:10:04;;;;;;;13.70;6.93;;;17.20;99.90;;;;;;5060206;28;20033;-58
2023/07/29 04:12:30;;;;;;;11.48;7.18;;;17.20;99.90;;;;;;5079681;28;20037;-59
2023/07/29 04:14:56;;;;;;;11.98;7.35;;;17.20;99.90;;;;;;5079135;28;20101;-57
2023/07/29 04:17:21;;;;;;;12.05;7.05;;;17.20;99.90;;;;;;5078774;28;20040;-58
2023/07/29 04:19:47;;;;;;;11.38;6.82;;;17.20;99.90;;;;;;5079865;28;20135;-58
2023/07/29 04:22:13;;;;;;;11.80;7.40;;;17.30;99.90;;;;;;5077855;28;20045;-58
2023/07/29 04:24:39;;;;;;;11.68;6.65;;;17.20;99.90;;;;;;5079572;28;20545;-58
2023/07/29 04:27:05;;;;;;;10.18;6.40;;;17.20;99.90;;;;;;5077862;28;20049;-59
2023/07/29 04:29:31;;;;;;;10.90;6.82;;;17.30;99.90;;;;;;5085643;28;20718;-58
2023/07/29 04:31:56;;;;;;;10.57;6.80;;;17.30;99.90;;;;;;5098437;28;20058;-58
2023/07/29 04:34:22;;;;;;;12.18;7.28;;;17.20;99.90;;;;;;5098544;28;20039;-58
2023/07/29 04:36:48;;;;;;;11.35;6.50;;;17.20;99.90;;;;;;5099983;28;20043;-62
2023/07/29 04:39:14;;;;;;;10.82;6.10;;;17.40;99.90;;;;;;5097972;28;20039;-58
2023/07/29 04:41:40;;;;;;;10.65;6.30;;;17.30;99.90;;;;;;5099664;28;20081;-58
2023/07/29 04:44:06;;;;;;;10.80;6.53;;;17.30;99.90;;;;;;5097896;28;20040;-58
2023/07/29 04:46:33;;;;;;;10.32;6.50;;;17.30;99.90;;;;;;5099538;28;20044;-58
2023/07/29 04:48:58;;;;;;;10.25;6.32;;;17.20;99.90;;;;;;5098150;28;20044;-58
2023/07/29 04:51:24;;;;;;;11.52;6.07;;;17.20;99.90;;;;;;5080643;28;20621;-58
2023/07/29 04:53:50;;;;;;;10.40;5.60;;;17.30;99.90;;;;;;5099345;28;20043;-58
2023/07/29 04:56:16;;;;;;;9.30;5.97;;;17.30;99.90;;;;;;5076852;28;20074;-58
2023/07/29 04:58:41;;;;;;;12.68;6.10;;;17.30;99.90;;;;;;5079512;28;20048;-58
2023/07/29 05:01:07;;;;;;;10.25;5.88;;;17.30;99.90;;;;;;5077025;28;20052;-58
2023/07/29 05:03:33;;;;;;;11.65;6.03;;;17.40;99.90;;;;;;5079000;28;20153;-58
2023/07/29 05:05:59;;;;;;;8.38;5.43;;;17.40;99.90;;;;;;5077383;28;20137;-57
2023/07/29 05:08:26;;;;;;;9.70;5.68;;;17.40;99.90;;;;;;5078720;28;20036;-57
2023/07/29 05:10:52;;;;;;;10.90;5.15;;;17.40;99.90;;;;;;5078439;28;20104;-57
2023/07/29 05:13:18;;;;;;;9.68;5.47;;;17.40;99.90;;;;;;5077632;28;20048;-58
2023/07/29 05:15:44;;;;;;;8.75;5.15;;;17.40;99.90;;;;;;5079048;28;20083;-57
2023/07/29 05:18:10;;;;;;;8.35;5.00;;;17.40;99.90;;;;;;5076481;28;20101;-58
2023/07/29 05:20:36;;;;;;;8.48;5.18;;;17.50;99.90;;;;;;5078597;28;20496;-58
2023/07/29 05:23:02;;;;;;;12.50;5.18;;;17.40;99.90;;;;;;5076854;28;20063;-58
2023/07/29 05:25:28;;;;;;;9.75;5.38;;;17.40;99.90;;;;;;5077971;28;20621;-58
2023/07/29 05:27:54;;;;;;;9.13;5.35;;;17.50;99.90;;;;;;5078047;28;20066;-58
2023/07/29 05:30:20;;;;;;;9.57;5.28;;;17.40;99.90;;;;;;5077139;28;20049;-57
2023/07/29 05:32:46;;;;;;;8.52;4.50;;;17.50;99.90;;;;;;5078932;28;20040;-58
2023/07/29 05:35:12;;;;;;;8.63;4.40;;;17.40;99.90;;;;;;5076430;28;20049;-58
2023/07/29 05:37:42;;;;;;;10.55;4.45;;;17.50;99.90;;;;;;5078574;28;20040;-58
2023/07/29 05:40:11;;;;;;;8.52;4.78;;;17.50;99.90;;;;;;5076885;28;20032;-58
2023/07/29 05:42:36;;;;;;;9.13;4.10;;;17.50;99.90;;;;;;5078471;28;20036;-58
2023/07/29 05:45:02;;;;;;;9.00;4.38;;;17.60;99.90;;;;;;5078041;28;20091;-58
2023/07/29 05:47:28;;;;;;;8.13;4.30;;;17.60;99.90;;;;;;5077375;28;20036;-58
2023/07/29 05:49:54;;;;;;;9.60;3.75;;;17.50;99.90;;;;;;5078626;28;20047;-57
2023/07/29 05:52:20;;;;;;;7.85;3.90;;;17.50;99.90;;;;;;5076317;28;20473;-57
2023/07/29 05:54:45;;;;;;;7.75;3.88;;;17.60;99.90;;;;;;5078461;28;20104;-58
2023/07/29 05:57:12;;;;;;;7.95;4.00;;;17.60;99.90;;;;;;5086444;28;20101;-58
2023/07/29 05:59:38;;;;;;;12.27;4.97;;;17.50;99.90;;;;;;5098360;28;20085;-57
2023/07/29 06:02:04;;;;;;;9.52;4.18;;;17.50;99.90;;;;;;5097482;28;20048;-57
2023/07/29 06:04:30;;;;;;;11.75;3.88;;;17.60;99.90;;;;;;5097486;28;20048;-58
2023/07/29 06:06:55;;;;;;;10.65;4.15;;;17.60;99.90;;;;;;5098646;28;20040;-57
2023/07/29 06:09:25;;;;;;;7.03;3.55;;;17.60;99.90;;;;;;5096680;28;20055;-58
2023/07/29 06:11:51;;;;;;;9.15;4.10;;;17.50;99.90;;;;;;5098410;28;20147;-58
2023/07/29 06:14:17;;;;;;;9.80;3.88;;;17.70;99.90;;;;;;5096660;28;20044;-58
2023/07/29 06:16:42;;;;;;;8.98;3.83;;;17.60;99.90;;;;;;5098362;28;20518;-58
2023/07/29 06:19:08;;;;;;;9.13;4.15;;;17.70;99.90;;;;;;5096659;28;20036;-57
2023/07/29 06:21:35;;;;;;;8.73;4.43;;;17.70;99.90;;;;;;5096954;28;20376;-58
2023/07/29 06:24:01;;;;;;;7.50;3.60;;;17.80;99.90;;;;;;5098350;28;20028;-58
2023/07/29 06:26:27;;;;;;;9.23;3.80;;;17.90;99.90;;;;;;5096220;28;20056;-57
2023/07/29 06:28:52;;;;;;;7.72;3.67;;;18.00;99.90;;;;;;5098483;28;20054;-58
2023/07/29 06:31:18;;;;;;;7.75;3.88;;;18.20;99.90;;;;;;5096320;28;20059;-58
2023/07/29 06:33:44;;;;;;;7.38;3.38;;;18.20;99.90;;;;;;5098397;28;20032;-58
2023/07/29 06:36:10;;;;;;;9.75;4.05;;;18.40;99.90;;;;;;5097088;28;20043;-58
2023/07/29 06:38:36;;;;;;;8.88;3.75;;;18.30;99.90;;;;;;5097432;28;20040;-58
2023/07/29 06:41:02;;;;;;;8.73;3.80;;;18.30;99.90;;;;;;5098516;28;20066;-57
2023/07/29 06:43:28;;;;;;;8.57;3.80;;;18.40;99.90;;;;;;5095759;28;20048;-57
2023/07/29 06:45:53;;;;;;;8.18;3.70;;;18.30;99.90;;;;;;5098323;28;20534;-58
2023/07/29 06:48:20;;;;;;;11.55;3.95;;;18.40;99.90;;;;;;5095861;28;20373;-58
2023/07/29 06:50:45;;;;;;;10.10;3.83;;;18.30;99.90;;;;;;5096736;28;20071;-58
2023/07/29 06:53:11;;;;;;;10.75;3.60;;;18.30;99.90;;;;;;5085060;28;20044;-58
2023/07/29 06:55:37;;;;;;;10.10;4.15;;;18.40;99.90;;;;;;5059584;28;20052;-58
2023/07/29 06:58:03;;;;;;;9.38;4.10;;;18.30;99.90;;;;;;5096087;28;20132;-58
2023/07/29 07:00:28;;;;;;;10.07;3.72;;;18.20;99.90;;;;;;5096698;28;20036;-58
2023/07/29 07:02:54;;;;;;;10.18;3.53;;;18.20;99.90;;;;;;5098570;28;20051;-58
2023/07/29 07:05:20;;;;;;;10.57;3.85;;;18.40;99.90;;;;;;5096249;28;20125;-58
2023/07/29 07:07:45;;;;;;;9.30;3.90;;;18.40;99.90;;;;;;5098426;28;20681;-58
2023/07/29 07:10:11;;;;;;;10.15;4.10;;;18.40;99.90;;;;;;5096112;28;20494;-58
2023/07/29 07:12:37;;;;;;;9.27;3.90;;;18.50;99.90;;;;;;5097735;28;20044;-58
2023/07/29 07:15:02;;;;;;;9.23;4.30;;;18.50;99.90;;;;;;5097666;28;20078;-59
2023/07/29 07:17:28;;;;;;;10.50;3.85;;;18.50;99.90;;;;;;5096590;28;20048;-58
2023/07/29 07:19:54;;;;;;;11.77;4.05;;;18.60;99.90;;;;;;5098271;28;20108;-59
2023/07/29 07:22:19;;;;;;;10.93;4.25;;;18.70;99.90;;;;;;5095512;28;20040;-57
2023/07/29 07:24:45;;;;;;;9.98;3.78;;;18.60;99.90;;;;;;5098011;28;20099;-58
2023/07/29 07:27:11;;;;;;;8.93;3.72;;;18.60;99.90;;;;;;5095987;28;20048;-58
2023/07/29 07:29:36;;;;;;;10.77;4.10;;;18.60;99.90;;;;;;5097827;28;20066;-57
2023/07/29 07:32:03;;;;;;;9.63;4.20;;;18.50;99.90;;;;;;5096886;28;20134;-60
2023/07/29 07:34:28;;;;;;;9.80;3.55;;;18.60;99.90;;;;;;5096211;28;20048;-58
2023/07/29 07:36:54;;;;;;;11.77;5.80;;;18.60;99.90;;;;;;5097947;28;20046;-57
2023/07/29 07:39:20;;;;;;;11.93;4.22;;;18.60;99.90;;;;;;5095700;28;20722;-58
2023/07/29 07:41:46;;;;;;;9.40;4.07;;;18.60;99.90;;;;;;5097914;28;20096;-58
2023/07/29 07:44:15;;;;;;;10.65;4.00;;;18.60;99.90;;;;;;5077525;28;20177;-58
2023/07/29 07:46:41;;;;;;;10.57;3.90;;;18.60;99.90;;;;;;5097107;28;20058;-58
2023/07/29 07:49:07;;;;;;;10.10;4.07;;;18.70;99.90;;;;;;5093244;28;20048;-58
2023/07/29 07:51:32;;;;;;;7.72;3.63;;;18.90;99.90;;;;;;5096397;28;20058;-60
2023/07/29 07:53:58;;;;;;;10.60;3.45;;;19.00;99.90;;;;;;5097406;28;20142;-58
2023/07/29 07:56:24;;;;;;;9.73;3.75;;;19.20;99.90;;;;;;5091697;28;20049;-57
2023/07/29 07:58:49;;;;;;;9.05;3.38;;;19.30;99.90;;;;;;5076868;28;20048;-58
2023/07/29 08:01:15;;;;;;;11.35;3.65;;;19.40;99.90;;;;;;5075123;28;20044;-58
2023/07/29 08:03:40;;;;;;;10.30;3.40;;;19.30;99.90;;;;;;5076467;28;20128;-58
2023/07/29 08:06:06;;;;;;;10.43;3.47;;;19.60;99.90;;;;;;5075783;28;20068;-58
2023/07/29 08:08:32;;;;;;;11.75;3.30;;;19.90;99.90;;;;;;5076094;28;20033;-58
2023/07/29 08:10:57;;;;;;;10.18;3.00;;;19.90;99.90;;;;;;5076633;28;20048;-58
2023/07/29 08:13:24;;;;;;;8.88;3.40;;;19.80;99.90;;;;;;5074872;28;20064;-57
2023/07/29 08:15:51;;;;;;;8.25;2.97;;;19.70;99.90;;;;;;5093520;28;20040;-58
2023/07/29 08:18:18;;;;;;;7.53;3.13;;;19.90;99.90;;;;;;5093774;28;20500;-57
2023/07/29 08:21:03;;;;;;;9.80;2.92;;;19.80;99.90;;;;;;5096153;28;20044;-58
2023/07/29 08:23:33;;;;;;;9.55;2.90;;;19.70;99.90;;;;;;5082416;28;20048;-58
2023/07/29 08:26:01;;;;;;;6.10;2.78;;;19.80;99.90;;;;;;5075088;28;20121;-58
2023/07/29 08:28:29;;;;;;;8.00;2.70;;;19.80;99.90;;;;;;5057984;28;20091;-58
2023/07/29 08:30:55;;;;;;;10.00;2.90;;;19.60;99.90;;;;;;5073446;28;20051;-58
2023/07/29 08:33:20;;;;;;;9.38;2.70;;;19.70;99.90;;;;;;5075398;28;20048;-59
2023/07/29 08:35:46;;;;;;;8.18;3.00;;;19.70;99.90;;;;;;5074114;28;20052;-58
2023/07/29 08:38:11;;;;;;;11.65;3.30;;;20.10;99.90;;;;;;5075677;28;20060;-58
2023/07/29 08:40:44;;;;;;;6.97;2.20;;;19.90;99.90;;;;;;5078108;28;20055;-58
2023/07/29 08:43:13;;;;;;;8.32;2.63;;;20.20;99.90;;;;;;5078009;28;20388;-58
2023/07/29 08:45:40;;;;;;;8.65;2.70;;;20.20;99.90;;;;;;5079626;28;20032;-58
2023/07/29 08:48:10;;;;;;;9.43;2.58;;;20.20;99.90;;;;;;5076322;28;20044;-58
2023/07/29 08:50:36;;;;;;;9.75;2.90;;;20.30;99.90;;;;;;5079062;28;20048;-58
2023/07/29 08:53:05;;;;;;;8.50;2.42;;;20.40;99.90;;;;;;5077182;28;20111;-57
2023/07/29 08:55:32;;;;;;;6.45;2.13;;;20.70;99.90;;;;;;5078517;28;20064;-58
2023/07/29 08:57:59;;;;;;;7.00;2.78;;;20.40;99.90;;;;;;5094825;28;20085;-59
2023/07/29 09:00:26;;;;;;;6.65;2.33;;;20.20;99.90;;;;;;5096940;28;20048;-58
2023/07/29 09:02:53;;;;;;;7.30;2.47;;;20.30;99.90;;;;;;5099635;28;20483;-58
2023/07/29 09:05:21;;;;;;;7.10;2.10;;;20.20;99.90;;;;;;5096930;28;20050;-58
2023/07/29 09:07:48;;;;;;;6.45;1.92;;;20.20;99.90;;;;;;5099150;28;20050;-58
2023/07/29 09:10:14;;;;;;;8.20;2.30;;;20.20;99.90;;;;;;5097927;28;20581;-59
2023/07/29 09:12:40;;;;;;;8.07;2.15;;;20.20;99.90;;;;;;5080525;28;20052;-58
2023/07/29 09:15:06;;;;;;;7.40;2.40;;;20.30;99.90;;;;;;5098670;28;20043;-57
2023/07/29 09:17:35;;;;;;;5.25;1.73;;;20.50;99.90;;;;;;5097559;28;20052;-58
2023/07/29 09:20:01;;;;;;;5.65;1.90;;;20.50;99.90;;;;;;5098724;28;20040;-58
2023/07/29 09:22:27;;;;;;;7.10;2.08;;;20.50;99.90;;;;;;5096939;28;20051;-57
2023/07/29 09:24:53;;;;;;;5.53;2.00;;;20.50;99.90;;;;;;5080449;28;20059;-58
2023/07/29 09:27:27;;;;;;;6.05;2.33;;;20.50;99.90;;;;;;5097551;28;20048;-58
2023/07/29 09:29:53;;;;;;;6.35;2.00;;;20.50;99.90;;;;;;5097923;28;20056;-58
2023/07/29 09:32:24;;;;;;;6.70;1.75;;;20.40;99.90;;;;;;5098705;28;20094;-57
2023/07/29 09:34:51;;;;;;;7.63;2.17;;;20.80;99.90;;;;;;5097003;28;20044;-58
2023/07/29 09:37:23;;;;;;;10.02;2.22;;;21.10;99.90;;;;;;5098970;28;20047;-58
2023/07/29 09:39:49;;;;;;;6.65;1.85;;;21.10;99.90;;;;;;5096938;28;20074;-58
2023/07/29 09:42:23;;;;;;;6.30;1.80;;;21.00;99.90;;;;;;5098203;28;20040;-58
2023/07/29 09:44:50;;;;;;;7.90;1.83;;;20.80;99.90;;;;;;5097669;28;20075;-55
2023/07/29 09:47:34;;;;;;;5.85;1.70;;;20.80;99.90;;;;;;5097582;28;20067;-58
2023/07/29 09:50:00;;;;;;;6.30;1.63;;;20.80;99.90;;;;;;5097859;28;20051;-58
2023/07/29 09:52:25;;;;;;;5.85;1.83;;;21.10;99.90;;;;;;5096516;28;20036;-57
2023/07/29 09:54:51;;;;;;;5.10;1.50;;;20.90;99.90;;;;;;5098117;28;20040;-58
2023/07/29 09:57:18;;;;;;;5.32;1.55;;;20.90;99.90;;;;;;5083326;28;20047;-58
2023/07/29 09:59:57;;;;;;;4.30;1.40;;;21.00;99.90;;;;;;5077611;28;20041;-58
2023/07/29 10:02:24;;;;;;;5.85;1.83;;;21.10;99.90;;;;;;5078080;28;20507;-57
2023/07/29 10:04:51;;;;;;;6.82;1.77;;;21.20;99.90;;;;;;5076292;28;20086;-58
2023/07/29 10:07:18;;;;;;;10.57;2.85;;;21.20;99.90;;;;;;5078402;28;20093;-58
2023/07/29 10:09:46;;;;;;;6.88;1.77;;;21.20;99.90;;;;;;5076252;28;20056;-58
2023/07/29 10:12:12;;;;;;;5.85;2.08;;;21.20;99.90;;;;;;5077764;28;20086;-58
2023/07/29 10:14:42;;;;;;;4.82;1.40;;;21.30;99.90;;;;;;5058264;28;20056;-58
2023/07/29 10:17:08;;;;;;;7.53;1.83;;;21.30;99.90;;;;;;5076688;28;20053;-58
2023/07/29 10:19:36;;;;;;;5.45;1.67;;;21.30;99.90;;;;;;5077797;28;20041;-58
2023/07/29 10:22:03;;;;;;;5.13;1.48;;;21.60;99.90;;;;;;5075833;28;20048;-58
2023/07/29 10:24:33;;;;;;;5.10;1.58;;;21.60;99.90;;;;;;5077595;28;20063;-58
2023/07/29 10:27:00;;;;;;;6.10;1.80;;;21.70;99.90;;;;;;5075975;28;20041;-58
2023/07/29 10:29:34;;;;;;;6.07;1.90;;;21.50;99.90;;;;;;5077366;28;20032;-60
2023/07/29 10:32:03;;;;;;;6.10;1.40;;;21.70;99.90;;;;;;5085092;28;20045;-57
2023/07/29 10:34:31;;;;;;;4.28;1.30;;;21.70;99.90;;;;;;5085388;28;20032;-58
2023/07/29 10:36:57;;;;;;;6.55;1.48;;;21.50;99.90;;;;;;5068915;28;20044;-58
2023/07/29 10:39:26;;;;;;;7.07;1.92;;;21.50;99.90;;;;;;5087032;28;20036;-58
2023/07/29 10:41:58;;;;;;;4.60;1.50;;;21.40;99.90;;;;;;5067824;28;20056;-58
2023/07/29 10:44:40;;;;;;;5.80;1.55;;;21.40;99.90;;;;;;5085507;28;20387;-59
2023/07/29 10:47:16;;;;;;;6.00;1.55;;;21.20;99.90;;;;;;5087270;28;20095;-59
2023/07/29 10:49:43;;;;;;;6.93;1.85;;;21.30;99.90;;;;;;5087263;28;20423;-58
2023/07/29 10:52:12;;;;;;;6.00;2.10;;;21.30;99.90;;;;;;5084480;28;20387;-58
2023/07/29 10:54:46;;;;;;;5.45;1.60;;;21.10;99.90;;;;;;5085913;28;20040;-59
2023/07/29 10:57:16;;;;;;;6.85;2.10;;;21.00;99.90;;;;;;5083757;28;20516;-59
2023/07/29 10:59:55;;;;;;;6.55;1.98;;;20.60;99.90;;;;;;5086647;28;20488;-59
2023/07/29 11:02:28;;;;;;;7.90;2.20;;;20.50;99.90;;;;;;5087265;28;20037;-59
2023/07/29 11:04:53;;;;;;;5.65;1.80;;;20.50;99.90;;;;;;5083857;28;20036;-59
2023/07/29 11:07:26;;;;;;;7.50;1.70;;;20.50;99.90;;;;;;5087900;28;20661;-59
2023/07/29 11:09:56;;;;;;;6.13;1.80;;;20.40;99.90;;;;;;5086323;28;20117;-59
2023/07/29 11:12:35;;;;;;;9.50;3.00;;;20.30;99.90;;;;;;5086504;28;20574;-69
2023/07/29 11:15:10;;;;;;;8.25;2.20;;;20.00;99.90;;;;;;5068542;28;20097;-71
2023/07/29 11:17:40;;;;;;;8.18;2.03;;;19.40;99.90;;;;;;5083706;28;20075;-75
2023/07/29 11:20:09;;;;;;;5.85;1.85;;;19.10;99.90;;;;;;5086706;28;20062;-65
2023/07/29 11:22:36;;;;;;;5.82;2.28;;;19.40;99.90;;;;;;5085834;28;20042;-63
2023/07/29 11:25:02;;;;;;;5.15;2.13;;;19.40;99.90;;;;;;5068379;28;20962;-63
2023/07/29 11:27:28;;;;;;;5.68;2.42;;;19.20;99.90;;;;;;5085220;28;20032;-62
2023/07/29 11:30:02;;;;;;;6.05;1.90;;;19.30;99.90;;;;;;5061867;28;20047;-62
2023/07/29 11:32:28;;;;;;;8.02;2.20;;;19.50;99.90;;;;;;5089050;28;20054;-61
2023/07/29 11:34:54;;;;;;;8.02;2.75;;;19.80;99.90;;;;;;5071367;28;20059;-61
2023/07/29 11:37:22;;;;;;;7.00;3.00;;;19.80;99.90;;;;;;5088840;28;20036;-61
2023/07/29 11:39:48;;;;;;;6.20;2.70;;;19.90;99.90;;;;;;5079029;28;20057;-61
2023/07/29 11:42:15;;;;;;;6.93;3.03;;;20.10;99.90;;;;;;5061663;28;20053;-60
2023/07/29 11:44:41;;;;;;;6.15;2.20;;;20.00;99.90;;;;;;5086889;28;20043;-60
2023/07/29 11:47:11;;;;;;;7.47;3.15;;;20.00;99.90;;;;;;5092050;28;20040;-60
2023/07/29 11:49:39;;;;;;;7.47;2.85;;;19.80;99.90;;;;;;5090347;28;20511;-61
2023/07/29 11:52:09;;;;;;;6.35;2.00;;;19.80;99.90;;;;;;5070799;28;20511;-69
2023/07/29 11:54:37;;;;;;;6.07;2.35;;;19.60;99.90;;;;;;5089614;28;20040;-65
2023/07/29 11:57:08;;;;;;;9.38;2.50;;;19.40;99.90;;;;;;5089444;28;20194;-63
2023/07/29 11:59:37;;;;;;;5.78;2.40;;;19.30;99.90;;;;;;5080193;28;20040;-62
2023/07/29 12:02:15;;;;;;;6.03;2.58;;;19.30;99.90;;;;;;5079484;28;20051;-62
2023/07/29 12:04:41;;;;;;;7.00;2.63;;;19.50;99.90;;;;;;5077734;28;20036;-59
2023/07/29 12:07:08;;;;;;;6.82;2.55;;;19.30;99.90;;;;;;5080471;28;20044;-61
2023/07/29 12:09:37;;;;;;;6.10;2.30;;;19.40;99.90;;;;;;5078208;28;20036;-61
2023/07/29 12:12:04;;;;;;;5.32;2.08;;;19.40;99.90;;;;;;5079911;28;20056;-61
2023/07/29 12:14:30;;;;;;;5.18;1.90;;;19.20;99.90;;;;;;5078448;28;20187;-62
2023/07/29 12:16:56;;;;;;;7.45;2.08;;;18.60;99.90;;;;;;5079457;28;20434;-78
2023/07/29 12:19:25;;;;;;;5.07;2.30;;;18.30;99.90;;;;;;5079475;28;20044;-67
2023/07/29 12:21:50;;;;;;;6.00;1.98;;;18.50;99.90;;;;;;5077831;28;20697;-64
2023/07/29 12:24:16;;;;;;;6.13;2.10;;;18.70;99.90;;;;;;5061777;28;20076;-63
2023/07/29 12:26:42;;;;;;;7.00;2.17;;;18.80;99.90;;;;;;5077683;28;20056;-62
2023/07/29 12:29:15;;;;;;;7.93;2.30;;;19.00;99.90;;;;;;5079639;28;20048;-62
2023/07/29 12:31:41;;;;;;;6.95;2.13;;;19.40;99.90;;;;;;5078083;28;20048;-61
2023/07/29 12:34:08;;;;;;;5.20;2.13;;;19.60;99.90;;;;;;5078504;28;20113;-62
2023/07/29 12:36:43;;;;;;;5.88;2.47;;;19.60;99.90;;;;;;5079107;28;20415;-61
2023/07/29 12:39:20;;;;;;;9.13;2.13;;;19.70;99.90;;;;;;5076844;28;20056;-61
2023/07/29 12:41:47;;;;;;;6.68;2.40;;;19.70;99.90;;;;;;5079030;28;20040;-61